createdAt,value
2023-03-17T00:01:51.378Z,-0.56
2023-03-17T00:04:19.353Z,-0.63
2023-03-17T00:06:46.559Z,-0.71
2023-03-17T00:09:14.989Z,-0.76
2023-03-17T00:11:42.535Z,-0.88
2023-03-17T00:14:09.247Z,-0.92
2023-03-17T00:16:54.640Z,-0.84
2023-03-17T00:19:30.980Z,-1.01
2023-03-17T00:21:58.999Z,-1.01
2023-03-17T00:24:25.901Z,-1.10
2023-03-17T00:26:53.222Z,-1.14
2023-03-17T00:29:20.012Z,-1.18
2023-03-17T00:31:46.753Z,-1.28
2023-03-17T00:34:18.301Z,-1.31
2023-03-17T00:36:48.031Z,-1.12
2023-03-17T00:41:41.761Z,-1.33
2023-03-17T00:44:08.163Z,-1.32
2023-03-17T00:46:38.266Z,-1.20
2023-03-17T00:51:43.692Z,-0.96
2023-03-17T00:54:11.342Z,-1.21
2023-03-17T00:56:39.454Z,-1.06
2023-03-17T00:59:19.308Z,-1.14
2023-03-17T01:01:46.532Z,-0.99
2023-03-17T01:04:13.488Z,-1.14
2023-03-17T01:06:40.060Z,-1.00
2023-03-17T01:09:08.200Z,-1.04
2023-03-17T01:11:34.983Z,-1.05
2023-03-17T01:14:01.391Z,-1.19
2023-03-17T01:16:44.786Z,-1.12
2023-03-17T01:19:13.038Z,-1.19
2023-03-17T01:21:39.609Z,-1.24
2023-03-17T01:24:06.528Z,-1.30
2023-03-17T01:26:33.001Z,-1.35
2023-03-17T01:28:59.900Z,-1.29
2023-03-17T01:31:26.447Z,-1.28
2023-03-17T01:33:53.034Z,-1.36
2023-03-17T01:36:26.526Z,-1.20
2023-03-17T01:38:52.900Z,-1.33
2023-03-17T01:41:20.719Z,-1.22
2023-03-17T01:43:47.137Z,-1.41
2023-03-17T01:46:35.568Z,-1.09
2023-03-17T01:49:27.755Z,-1.05
2023-03-17T01:52:18.142Z,-1.04
2023-03-17T01:54:56.626Z,-0.88
2023-03-17T01:57:28.623Z,-1.14
2023-03-17T02:00:01.557Z,-0.96
2023-03-17T02:02:35.458Z,-1.00
2023-03-17T02:05:04.980Z,-1.14
2023-03-17T02:07:31.879Z,-1.12
2023-03-17T02:09:58.944Z,-0.95
2023-03-17T02:12:27.757Z,-0.99
2023-03-17T02:14:54.597Z,-1.04
2023-03-17T02:17:22.970Z,-0.78
2023-03-17T02:19:49.895Z,-0.75
2023-03-17T02:22:18.247Z,-0.86
2023-03-17T02:24:50.648Z,-0.65
2023-03-17T02:27:34.758Z,-0.45
2023-03-17T02:30:01.860Z,-0.43
2023-03-17T02:32:28.309Z,-0.49
2023-03-17T02:34:54.757Z,-0.69
2023-03-17T02:37:21.519Z,-0.78
2023-03-17T02:39:47.915Z,-0.71
2023-03-17T02:42:14.573Z,-0.69
2023-03-17T02:44:41.004Z,-0.78
2023-03-17T02:47:08.565Z,-0.58
2023-03-17T02:49:36.585Z,-0.77
2023-03-17T02:52:04.344Z,-0.61
2023-03-17T02:54:31.253Z,-0.61
2023-03-17T02:56:57.671Z,-0.49
2023-03-17T02:59:24.098Z,-0.72
2023-03-17T03:01:50.787Z,-0.69
2023-03-17T03:04:19.900Z,-0.55
2023-03-17T03:06:47.637Z,-0.69
2023-03-17T03:09:14.852Z,-0.63
2023-03-17T03:11:41.417Z,-0.52
2023-03-17T03:14:08.232Z,-0.42
2023-03-17T03:16:34.614Z,-0.52
2023-03-17T03:19:01.524Z,-0.48
2023-03-17T03:21:28.282Z,-0.47
2023-03-17T03:23:55.570Z,-0.18
2023-03-17T03:26:31.057Z,-0.42
2023-03-17T03:28:58.395Z,-0.35
2023-03-17T03:31:25.284Z,-0.25
2023-03-17T03:33:51.682Z,-0.32
2023-03-17T03:36:18.468Z,-0.24
2023-03-17T03:38:45.176Z,-0.28
2023-03-17T03:41:11.528Z,-0.40
2023-03-17T03:43:37.908Z,-0.51
2023-03-17T03:46:04.943Z,-0.34
2023-03-17T03:48:31.561Z,-0.40
2023-03-17T03:50:59.636Z,-0.32
2023-03-17T03:53:26.836Z,-0.32
2023-03-17T03:55:53.542Z,-0.55
2023-03-17T03:58:20.084Z,-0.61
2023-03-17T04:00:47.085Z,-0.67
2023-03-17T04:03:13.992Z,-0.58
2023-03-17T04:05:40.363Z,-0.53
2023-03-17T04:08:06.905Z,-0.62
2023-03-17T04:10:33.741Z,-0.32
2023-03-17T04:13:00.618Z,-0.50
2023-03-17T04:15:27.123Z,-0.41
2023-03-17T04:17:55.042Z,-0.58
2023-03-17T04:20:25.547Z,-0.47
2023-03-17T04:22:52.355Z,-0.54
2023-03-17T04:25:18.926Z,-0.45
2023-03-17T04:27:45.361Z,-0.57
2023-03-17T04:30:16.964Z,-0.71
2023-03-17T04:32:44.727Z,-0.69
2023-03-17T04:35:17.101Z,-0.88
2023-03-17T04:37:43.833Z,-0.93
2023-03-17T04:40:12.595Z,-1.04
2023-03-17T04:42:39.354Z,-0.71
2023-03-17T04:45:06.717Z,-0.67
2023-03-17T04:47:33.626Z,-0.60
2023-03-17T04:50:00.009Z,-0.80
2023-03-17T04:52:26.380Z,-0.82
2023-03-17T04:54:53.210Z,-0.67
2023-03-17T04:57:19.658Z,-0.93
2023-03-17T04:59:51.608Z,-0.84
2023-03-17T05:02:40.033Z,-0.78
2023-03-17T05:05:08.608Z,-0.90
2023-03-17T05:07:35.042Z,-0.81
2023-03-17T05:10:02.121Z,-0.83
2023-03-17T05:12:28.609Z,-0.90
2023-03-17T05:14:55.407Z,-0.64
2023-03-17T05:17:21.949Z,-0.70
2023-03-17T05:19:51.636Z,-0.82
2023-03-17T05:22:19.691Z,-0.91
2023-03-17T05:24:51.152Z,-0.85
2023-03-17T05:27:17.583Z,-0.98
2023-03-17T05:29:43.988Z,-0.97
2023-03-17T05:32:25.975Z,-0.76
2023-03-17T05:34:52.363Z,-0.77
2023-03-17T05:37:18.739Z,-0.67
2023-03-17T05:39:45.136Z,-0.84
2023-03-17T05:42:14.653Z,-0.90
2023-03-17T05:44:41.048Z,-1.03
2023-03-17T05:47:08.399Z,-1.11
2023-03-17T05:49:34.921Z,-1.03
2023-03-17T05:52:01.508Z,-1.06
2023-03-17T05:54:28.946Z,-1.00
2023-03-17T05:57:01.878Z,-1.00
2023-03-17T05:59:29.023Z,-0.98
2023-03-17T06:02:04.765Z,-1.01
2023-03-17T06:04:31.290Z,-0.91
2023-03-17T06:06:57.690Z,-1.09
2023-03-17T06:09:24.136Z,-0.84
2023-03-17T06:11:50.839Z,-0.78
2023-03-17T06:14:18.094Z,-0.79
2023-03-17T06:16:44.488Z,-0.79
2023-03-17T06:19:11.053Z,-0.67
2023-03-17T06:21:37.500Z,-0.76
2023-03-17T06:24:04.598Z,-0.75
2023-03-17T06:26:31.006Z,-0.66
2023-03-17T06:29:09.689Z,-0.72
2023-03-17T06:31:37.014Z,-0.60
2023-03-17T06:34:03.812Z,-0.51
2023-03-17T06:36:32.696Z,-0.46
2023-03-17T06:39:00.524Z,-0.34
2023-03-17T06:41:39.516Z,-0.17
2023-03-17T06:44:07.302Z,-0.24
2023-03-17T06:46:33.953Z,-0.19
2023-03-17T06:49:03.538Z,-0.13
2023-03-17T06:51:30.750Z,0.12
2023-03-17T06:53:57.133Z,0.24
2023-03-17T06:56:30.221Z,0.45
2023-03-17T06:58:57.491Z,0.52
2023-03-17T07:01:24.010Z,0.44
2023-03-17T07:04:05.398Z,0.54
2023-03-17T07:06:31.818Z,0.61
2023-03-17T07:09:00.906Z,0.73
2023-03-17T07:11:29.422Z,0.70
2023-03-17T07:13:56.295Z,0.87
2023-03-17T07:16:23.622Z,0.90
2023-03-17T07:18:50.574Z,1.10
2023-03-17T07:21:17.372Z,1.15
2023-03-17T07:23:43.802Z,1.48
2023-03-17T07:26:10.428Z,1.42
2023-03-17T07:28:36.881Z,1.57
2023-03-17T07:31:08.842Z,1.92
2023-03-17T07:33:35.610Z,2.09
2023-03-17T07:36:02.076Z,2.23
2023-03-17T07:38:28.572Z,2.40
2023-03-17T07:40:55.745Z,2.71
2023-03-17T07:43:22.539Z,2.67
2023-03-17T07:45:49.009Z,2.72
2023-03-17T07:48:16.268Z,3.03
2023-03-17T07:50:43.034Z,3.25
2023-03-17T07:53:09.440Z,3.39
2023-03-17T07:55:41.360Z,3.36
2023-03-17T07:58:09.188Z,3.62
2023-03-17T08:00:35.831Z,3.72
2023-03-17T08:03:09.914Z,3.75
2023-03-17T08:05:37.554Z,3.66
2023-03-17T08:08:05.234Z,4.30
2023-03-17T08:10:31.942Z,4.39
2023-03-17T08:12:58.693Z,4.63
2023-03-17T08:15:25.240Z,4.98
2023-03-17T08:17:51.683Z,4.90
2023-03-17T08:20:18.119Z,5.12
2023-03-17T08:22:44.605Z,5.42
2023-03-17T08:25:11.717Z,5.62
2023-03-17T08:27:38.656Z,5.91
2023-03-17T08:30:05.927Z,6.06
2023-03-17T08:32:32.502Z,6.14
2023-03-17T08:34:58.922Z,6.25
2023-03-17T08:37:25.981Z,6.50
2023-03-17T08:39:52.399Z,6.84
2023-03-17T08:42:18.791Z,6.88
2023-03-17T08:44:45.246Z,7.09
2023-03-17T08:47:11.972Z,7.20
2023-03-17T08:49:38.537Z,7.25
2023-03-17T08:52:05.204Z,7.39
2023-03-17T08:54:31.781Z,7.66
2023-03-17T08:56:58.527Z,7.87
2023-03-17T08:59:24.950Z,7.88
2023-03-17T09:01:51.452Z,8.13
2023-03-17T09:04:28.169Z,8.42
2023-03-17T09:07:03.419Z,8.71
2023-03-17T09:09:31.061Z,8.79
2023-03-17T09:11:57.535Z,8.82
2023-03-17T09:14:24.832Z,9.06
2023-03-17T09:16:52.237Z,9.14
2023-03-17T09:19:18.641Z,9.20
2023-03-17T09:21:45.151Z,9.47
2023-03-17T09:24:12.439Z,9.64
2023-03-17T09:26:38.915Z,9.92
2023-03-17T09:29:05.591Z,9.59
2023-03-17T09:31:32.819Z,9.64
2023-03-17T09:33:59.876Z,9.90
2023-03-17T09:36:26.325Z,9.81
2023-03-17T09:39:14.708Z,10.33
2023-03-17T09:41:53.065Z,10.21
2023-03-17T09:44:32.135Z,10.36
2023-03-17T09:47:04.526Z,10.31
2023-03-17T09:49:58.500Z,10.38
2023-03-17T09:52:29.274Z,10.55
2023-03-17T09:54:57.023Z,10.73
2023-03-17T09:57:32.320Z,10.93
2023-03-17T10:00:14.652Z,11.04
2023-03-17T10:02:43.301Z,11.28
2023-03-17T10:05:21.160Z,11.66
2023-03-17T10:08:05.369Z,11.82
2023-03-17T10:10:46.954Z,11.93
2023-03-17T10:13:43.243Z,12.36
2023-03-17T10:16:17.554Z,12.42
2023-03-17T10:18:49.499Z,12.72
2023-03-17T10:21:20.733Z,12.85
2023-03-17T10:23:47.206Z,13.00
2023-03-17T10:26:29.017Z,13.05
2023-03-17T10:28:55.868Z,13.16
2023-03-17T10:31:33.623Z,13.39
2023-03-17T10:34:13.124Z,13.17
2023-03-17T10:36:42.577Z,13.48
2023-03-17T10:39:14.242Z,13.57
2023-03-17T10:41:53.683Z,13.71
2023-03-17T10:44:44.029Z,13.75
2023-03-17T10:47:25.664Z,13.81
2023-03-17T10:49:52.530Z,13.66
2023-03-17T10:52:23.360Z,13.98
2023-03-17T10:54:53.082Z,13.83
2023-03-17T10:57:20.673Z,13.95
2023-03-17T10:59:58.506Z,14.02
2023-03-17T11:02:31.522Z,14.08
2023-03-17T11:05:07.114Z,14.29
2023-03-17T11:07:39.581Z,14.40
2023-03-17T11:10:25.726Z,14.64
2023-03-17T11:13:02.965Z,14.46
2023-03-17T11:15:36.147Z,14.80
2023-03-17T11:18:18.896Z,15.00
2023-03-17T11:20:50.850Z,14.92
2023-03-17T11:23:33.076Z,14.93
2023-03-17T11:26:21.255Z,15.06
2023-03-17T11:28:55.950Z,15.09
2023-03-17T11:31:25.798Z,15.35
2023-03-17T11:34:21.677Z,15.22
2023-03-17T11:37:10.629Z,15.71
2023-03-17T11:39:57.248Z,15.71
2023-03-17T11:42:31.054Z,15.58
2023-03-17T11:45:15.480Z,15.70
2023-03-17T11:47:44.877Z,15.77
2023-03-17T11:50:30.269Z,15.88
2023-03-17T11:53:23.300Z,15.90
2023-03-17T11:56:37.609Z,15.91
2023-03-17T11:59:45.135Z,16.06
2023-03-17T12:02:29.902Z,16.45
2023-03-17T12:05:24.477Z,16.41
2023-03-17T12:07:56.902Z,16.59
2023-03-17T12:10:41.596Z,16.38
2023-03-17T12:13:42.856Z,16.62
2023-03-17T12:16:17.400Z,16.89
2023-03-17T12:19:22.888Z,16.84
2023-03-17T12:21:59.204Z,16.86
2023-03-17T12:24:45.511Z,17.44
2023-03-17T12:27:17.937Z,17.14
2023-03-17T12:29:50.017Z,17.31
2023-03-17T12:32:22.510Z,17.01
2023-03-17T12:34:57.356Z,17.39
2023-03-17T12:37:27.425Z,17.12
2023-03-17T12:40:09.882Z,17.14
2023-03-17T12:42:53.542Z,17.60
2023-03-17T12:45:32.524Z,17.47
2023-03-17T12:48:02.087Z,17.70
2023-03-17T12:50:47.137Z,17.62
2023-03-17T12:53:30.172Z,17.64
2023-03-17T12:56:10.822Z,17.74
2023-03-17T12:58:49.945Z,17.81
2023-03-17T13:01:23.039Z,18.03
2023-03-17T13:03:58.914Z,18.14
2023-03-17T13:06:48.142Z,17.85
2023-03-17T13:09:30.301Z,17.95
2023-03-17T13:11:59.317Z,17.75
2023-03-17T13:14:43.621Z,18.09
2023-03-17T13:17:31.201Z,18.24
2023-03-17T13:20:12.107Z,18.21
2023-03-17T13:23:02.977Z,18.35
2023-03-17T13:25:35.505Z,18.30
2023-03-17T13:28:14.109Z,18.46
2023-03-17T13:30:40.440Z,18.71
2023-03-17T13:33:10.015Z,18.71
2023-03-17T13:35:58.727Z,18.74
2023-03-17T13:39:15.037Z,18.75
2023-03-17T13:42:17.806Z,18.73
2023-03-17T13:44:47.886Z,18.48
2023-03-17T13:47:36.552Z,18.49
2023-03-17T13:50:11.934Z,18.63
2023-03-17T13:52:43.182Z,18.51
2023-03-17T13:55:59.192Z,18.22
2023-03-17T13:58:31.242Z,18.28
2023-03-17T14:01:02.533Z,18.35
2023-03-17T14:03:53.983Z,18.54
2023-03-17T14:06:27.995Z,18.24
2023-03-17T14:09:17.339Z,18.14
2023-03-17T14:11:47.537Z,17.85
2023-03-17T14:14:31.670Z,18.05
2023-03-17T14:17:24.091Z,18.32
2023-03-17T14:20:16.788Z,18.33
2023-03-17T14:22:59.069Z,18.51
2023-03-17T14:25:36.953Z,18.54
2023-03-17T14:28:12.180Z,18.80
2023-03-17T14:30:39.069Z,18.77
2023-03-17T14:33:11.897Z,18.83
2023-03-17T14:35:43.265Z,18.66
2023-03-17T14:38:18.836Z,18.90
2023-03-17T14:40:45.335Z,18.64
2023-03-17T14:43:18.589Z,18.84
2023-03-17T14:45:53.291Z,18.82
2023-03-17T14:48:41.439Z,18.95
2023-03-17T14:51:28.564Z,18.77
2023-03-17T14:54:25.898Z,18.53
2023-03-17T14:57:02.134Z,18.16
2023-03-17T14:59:38.810Z,18.25
2023-03-17T15:02:21.778Z,18.25
2023-03-17T15:04:55.609Z,18.15
2023-03-17T15:07:36.875Z,18.15
2023-03-17T15:10:04.892Z,18.07
2023-03-17T15:12:31.615Z,18.03
2023-03-17T15:15:06.176Z,17.93
2023-03-17T15:17:35.452Z,18.06
2023-03-17T15:20:16.546Z,18.13
2023-03-17T15:22:48.416Z,17.96
2023-03-17T15:25:33.241Z,18.14
2023-03-17T15:28:00.343Z,18.17
2023-03-17T15:30:31.670Z,18.12
2023-03-17T15:33:03.482Z,18.09
2023-03-17T15:35:31.104Z,18.04
2023-03-17T15:37:57.549Z,18.06
2023-03-17T15:40:24.181Z,18.03
2023-03-17T15:42:50.597Z,18.28
2023-03-17T15:45:32.113Z,18.40
2023-03-17T15:47:58.548Z,18.29
2023-03-17T15:50:31.238Z,18.29
2023-03-17T15:52:58.119Z,18.10
2023-03-17T15:55:30.074Z,18.05
2023-03-17T15:58:00.343Z,17.81
2023-03-17T16:00:33.316Z,17.82
2023-03-17T16:03:14.334Z,17.62
2023-03-17T16:05:40.972Z,17.66
2023-03-17T16:08:12.970Z,17.48
2023-03-17T16:10:39.525Z,17.33
2023-03-17T16:13:05.963Z,17.35
2023-03-17T16:15:36.955Z,17.08
2023-03-17T16:18:18.814Z,17.01
2023-03-17T16:20:50.941Z,16.71
2023-03-17T16:23:21.908Z,16.61
2023-03-17T16:25:49.797Z,16.44
2023-03-17T16:28:28.488Z,16.14
2023-03-17T16:30:56.375Z,16.07
2023-03-17T16:33:27.545Z,15.75
2023-03-17T16:35:55.458Z,15.75
2023-03-17T16:38:25.188Z,15.41
2023-03-17T16:40:54.163Z,15.40
2023-03-17T16:43:26.755Z,15.28
2023-03-17T16:45:59.600Z,15.18
2023-03-17T16:48:26.661Z,15.11
2023-03-17T16:50:53.794Z,14.75
2023-03-17T16:53:20.598Z,14.23
2023-03-17T16:55:48.110Z,14.39
2023-03-17T16:58:20.677Z,14.06
2023-03-17T17:00:49.283Z,13.98
2023-03-17T17:03:23.740Z,13.70
2023-03-17T17:05:50.287Z,13.51
2023-03-17T17:08:16.736Z,13.44
2023-03-17T17:10:43.426Z,12.77
2023-03-17T17:13:12.204Z,13.18
2023-03-17T17:15:39.675Z,12.80
2023-03-17T17:18:11.274Z,12.34
2023-03-17T17:20:44.114Z,12.64
2023-03-17T17:23:15.930Z,12.40
2023-03-17T17:25:43.380Z,12.46
2023-03-17T17:28:10.668Z,12.60
2023-03-17T17:30:37.883Z,12.26
2023-03-17T17:33:05.321Z,12.27
2023-03-17T17:35:41.129Z,11.95
2023-03-17T17:38:17.269Z,11.66
2023-03-17T17:40:43.719Z,11.78
2023-03-17T17:43:33.013Z,11.68
2023-03-17T17:45:59.631Z,11.39
2023-03-17T17:48:27.767Z,11.46
2023-03-17T17:50:56.027Z,11.05
2023-03-17T17:53:22.824Z,11.09
2023-03-17T17:55:49.827Z,10.86
2023-03-17T17:58:19.087Z,10.75
2023-03-17T18:00:45.776Z,10.41
2023-03-17T18:03:12.623Z,10.48
2023-03-17T18:05:40.501Z,10.19
2023-03-17T18:08:13.480Z,9.85
2023-03-17T18:10:41.445Z,9.90
2023-03-17T18:13:10.936Z,9.53
2023-03-17T18:15:37.678Z,9.56
2023-03-17T18:18:05.384Z,9.37
2023-03-17T18:20:32.313Z,9.03
2023-03-17T18:23:00.735Z,9.10
2023-03-17T18:25:28.112Z,9.12
2023-03-17T18:28:03.792Z,8.94
2023-03-17T18:30:34.726Z,9.01
2023-03-17T18:33:20.719Z,8.84
2023-03-17T18:35:50.950Z,8.66
2023-03-17T18:38:26.549Z,8.53
2023-03-17T18:40:52.949Z,8.31
2023-03-17T18:43:24.412Z,8.21
2023-03-17T18:45:50.934Z,8.12
2023-03-17T18:48:17.490Z,8.48
2023-03-17T18:50:43.939Z,8.14
2023-03-17T18:53:12.096Z,7.94
2023-03-17T18:55:45.733Z,7.82
2023-03-17T18:58:14.378Z,7.86
2023-03-17T19:00:41.213Z,7.84
2023-03-17T19:03:07.679Z,7.70
2023-03-17T19:05:38.437Z,7.77
2023-03-17T19:08:05.191Z,7.55
2023-03-17T19:10:32.895Z,7.14
2023-03-17T19:12:59.701Z,7.05
2023-03-17T19:15:26.629Z,6.93
2023-03-17T19:17:56.122Z,7.21
2023-03-17T19:20:22.751Z,6.84
2023-03-17T19:22:53.096Z,6.89
2023-03-17T19:25:20.502Z,6.78
2023-03-17T19:27:47.311Z,6.33
2023-03-17T19:30:14.136Z,6.56
2023-03-17T19:32:40.722Z,6.40
2023-03-17T19:35:08.271Z,6.27
2023-03-17T19:37:35.934Z,6.04
2023-03-17T19:40:02.340Z,6.02
2023-03-17T19:42:28.723Z,5.95
2023-03-17T19:44:55.115Z,6.06
2023-03-17T19:47:27.580Z,5.90
2023-03-17T19:49:53.975Z,5.50
2023-03-17T19:52:20.756Z,5.66
2023-03-17T19:54:47.352Z,5.62
2023-03-17T19:57:20.713Z,5.61
2023-03-17T19:59:47.322Z,5.40
2023-03-17T20:02:15.137Z,5.28
2023-03-17T20:04:52.727Z,5.34
2023-03-17T20:07:19.176Z,4.79
2023-03-17T20:09:49.910Z,5.45
2023-03-17T20:12:16.484Z,5.47
2023-03-17T20:14:44.877Z,4.76
2023-03-17T20:17:19.509Z,5.03
2023-03-17T20:19:46.170Z,5.07
2023-03-17T20:22:14.627Z,5.14
2023-03-17T20:24:45.675Z,4.97
2023-03-17T20:27:15.209Z,4.94
2023-03-17T20:29:42.953Z,4.74
2023-03-17T20:32:11.509Z,5.04
2023-03-17T20:34:37.993Z,4.91
2023-03-17T20:37:07.661Z,4.94
2023-03-17T20:39:35.035Z,4.80
2023-03-17T20:42:09.934Z,4.81
2023-03-17T20:44:38.395Z,4.77
2023-03-17T20:47:04.847Z,4.65
2023-03-17T20:49:32.216Z,4.73
2023-03-17T20:51:59.696Z,4.66
2023-03-17T20:54:33.341Z,4.62
2023-03-17T20:57:00.936Z,4.47
2023-03-17T20:59:37.467Z,4.43
2023-03-17T21:02:04.853Z,4.54
2023-03-17T21:04:31.671Z,4.54
2023-03-17T21:06:58.115Z,4.52
2023-03-17T21:09:28.251Z,4.57
2023-03-17T21:12:02.580Z,4.46
2023-03-17T21:14:28.998Z,4.28
2023-03-17T21:16:55.418Z,4.18
2023-03-17T21:19:22.030Z,4.23
2023-03-17T21:21:48.425Z,4.24
2023-03-17T21:24:31.187Z,4.35
2023-03-17T21:27:12.280Z,4.37
2023-03-17T21:29:40.008Z,4.18
2023-03-17T21:32:08.376Z,4.22
2023-03-17T21:34:35.360Z,4.32
2023-03-17T21:37:04.331Z,4.26
2023-03-17T21:39:32.713Z,4.42
2023-03-17T21:42:01.212Z,4.22
2023-03-17T21:44:28.000Z,3.95
2023-03-17T21:46:57.212Z,4.07
2023-03-17T21:49:24.703Z,4.09
2023-03-17T21:52:01.273Z,4.13
2023-03-17T21:54:28.409Z,4.14
2023-03-17T21:56:54.824Z,4.13
2023-03-17T21:59:21.212Z,4.15
2023-03-17T22:01:51.809Z,4.14
2023-03-17T22:04:18.893Z,4.08
2023-03-17T22:06:45.441Z,3.94
2023-03-17T22:09:12.921Z,4.01
2023-03-17T22:11:39.281Z,3.99
2023-03-17T22:14:05.759Z,3.96
2023-03-17T22:16:32.417Z,3.61
2023-03-17T22:19:04.067Z,3.71
2023-03-17T22:21:31.705Z,3.66
2023-03-17T22:23:58.562Z,3.61
2023-03-17T22:26:24.929Z,3.46
2023-03-17T22:28:51.445Z,3.55
2023-03-17T22:31:27.065Z,3.51
2023-03-17T22:33:56.188Z,3.78
2023-03-17T22:36:23.856Z,3.27
2023-03-17T22:38:50.601Z,3.51
2023-03-17T22:41:19.555Z,3.58
2023-03-17T22:43:46.868Z,3.36
2023-03-17T22:46:14.182Z,3.35
2023-03-17T22:48:40.800Z,3.48
2023-03-17T22:51:11.877Z,3.60
2023-03-17T22:53:39.405Z,3.21
2023-03-17T22:56:07.008Z,3.37
2023-03-17T22:58:34.270Z,3.36
2023-03-17T23:01:06.996Z,3.20
2023-03-17T23:03:34.009Z,3.36
2023-03-17T23:06:02.337Z,3.35
2023-03-17T23:08:31.486Z,3.52
2023-03-17T23:11:00.434Z,3.32
2023-03-17T23:13:27.621Z,3.26
2023-03-17T23:15:54.034Z,3.22
2023-03-17T23:18:20.416Z,3.25
2023-03-17T23:20:46.842Z,3.27
2023-03-17T23:23:13.658Z,3.22
2023-03-17T23:25:41.070Z,3.22
2023-03-17T23:28:07.887Z,3.04
2023-03-17T23:30:35.758Z,3.38
2023-03-17T23:33:04.799Z,3.16
2023-03-17T23:35:32.042Z,3.47
2023-03-17T23:37:58.690Z,3.48
2023-03-17T23:40:25.066Z,3.38
2023-03-17T23:42:54.317Z,3.11
2023-03-17T23:45:23.097Z,3.40
2023-03-17T23:47:51.464Z,3.42
2023-03-17T23:50:18.475Z,3.30
2023-03-17T23:52:45.340Z,3.47
2023-03-17T23:55:12.518Z,3.13
2023-03-17T23:57:39.249Z,3.18
